Time;durP1;ratioP1;P1;durP2;ratioP2;P2;SDS_P1;SDS_P2;PMS_P1;PMS_P2;Temp;Humidity;BMP_temperature;BMP_pressure;BME280_temperature;BME280_humidity;BME280_pressure;Samples;Min_cycle;Max_cycle;Signal;HPM_P1;HPM_P2
2022/06/02 00:01:23;;;;;;;6.57;4.75;;;19.60;83.90;;;;;;4978594;28;20130;-81
2022/06/02 00:03:58;;;;;;;6.85;5.00;;;19.60;83.60;;;;;;4993404;28;20080;-78
2022/06/02 00:06:35;;;;;;;5.68;4.20;;;19.60;83.70;;;;;;4966506;28;20053;-81
2022/06/02 00:09:41;;;;;;;4.75;4.28;;;19.60;83.90;;;;;;4982603;28;20084;-83
2022/06/02 00:12:30;;;;;;;5.80;4.78;;;19.60;84.00;;;;;;4962633;28;20571;-81
2022/06/02 00:15:16;;;;;;;6.63;5.10;;;19.60;83.50;;;;;;4976339;28;20065;-80
2022/06/02 00:18:09;;;;;;;5.97;4.93;;;19.60;83.80;;;;;;5004902;28;20030;-84
2022/06/02 00:20:47;;;;;;;5.88;5.25;;;19.60;84.00;;;;;;5007201;28;20041;-83
2022/06/02 00:23:15;;;;;;;9.50;5.00;;;19.60;83.70;;;;;;5002023;28;20033;-82
2022/06/02 00:26:11;;;;;;;7.25;5.53;;;19.50;84.10;;;;;;5002553;28;20520;-82
2022/06/02 00:28:49;;;;;;;5.50;5.00;;;19.50;84.10;;;;;;5001166;28;20137;-83
2022/06/02 00:31:41;;;;;;;5.80;5.05;;;19.50;84.40;;;;;;5015892;28;20375;-80
2022/06/02 00:34:30;;;;;;;7.03;5.60;;;19.50;84.20;;;;;;5003148;28;20080;-83
2022/06/02 00:37:02;;;;;;;7.57;5.78;;;19.40;84.30;;;;;;5000967;28;20030;-81
2022/06/02 00:39:31;;;;;;;6.45;5.50;;;19.40;84.40;;;;;;5000447;28;20077;-83
2022/06/02 00:42:29;;;;;;;6.75;6.13;;;19.40;84.50;;;;;;5001717;28;20034;-82
2022/06/02 00:45:11;;;;;;;8.18;6.05;;;19.40;84.50;;;;;;5002465;28;20053;-83
2022/06/02 00:47:57;;;;;;;7.43;6.00;;;19.40;84.50;;;;;;5023414;28;20073;-83
2022/06/02 00:50:25;;;;;;;7.13;6.05;;;19.40;84.50;;;;;;5022551;28;20044;-83
2022/06/02 00:53:17;;;;;;;8.45;6.22;;;19.40;84.80;;;;;;5019677;28;20033;-81
2022/06/02 00:59:05;;;;;;;6.32;5.72;;;19.40;84.50;;;;;;5023158;28;20121;-83
2022/06/02 01:01:33;;;;;;;7.40;6.45;;;19.40;84.50;;;;;;5019483;28;20529;-83
2022/06/02 01:04:21;;;;;;;8.55;5.75;;;19.40;84.50;;;;;;5019958;28;20030;-84
2022/06/02 01:07:11;;;;;;;7.25;5.82;;;19.30;84.50;;;;;;4985749;28;20046;-83
2022/06/02 01:10:04;;;;;;;8.70;6.30;;;19.40;84.50;;;;;;5038413;28;20463;-82
2022/06/02 01:12:45;;;;;;;6.93;6.22;;;19.30;84.30;;;;;;5020132;28;20040;-83
2022/06/02 01:15:37;;;;;;;7.35;6.20;;;19.40;84.10;;;;;;5020174;28;20120;-83
2022/06/02 01:18:20;;;;;;;8.63;5.63;;;19.30;84.30;;;;;;5021038;28;20539;-83
2022/06/02 01:20:49;;;;;;;8.35;6.07;;;19.30;84.20;;;;;;5008597;28;20099;-82
2022/06/02 01:23:36;;;;;;;6.22;5.50;;;19.20;84.20;;;;;;5036078;28;20032;-82
2022/06/02 01:26:12;;;;;;;6.93;5.97;;;19.20;84.10;;;;;;5050641;28;20105;-84
2022/06/02 01:28:52;;;;;;;9.30;6.40;;;19.20;84.10;;;;;;5031323;28;20382;-85
2022/06/02 01:31:50;;;;;;;7.82;6.07;;;19.30;84.10;;;;;;5018714;28;20033;-85
2022/06/02 01:34:31;;;;;;;7.53;6.47;;;19.20;84.00;;;;;;4979643;28;20034;-81
2022/06/02 01:37:10;;;;;;;8.82;6.78;;;19.20;84.10;;;;;;4981470;28;20030;-83
2022/06/02 01:40:10;;;;;;;6.97;6.38;;;19.20;84.40;;;;;;4976858;28;20038;-84
2022/06/02 01:42:58;;;;;;;7.65;6.28;;;19.20;83.90;;;;;;4980429;28;20580;-83
2022/06/02 01:45:52;;;;;;;7.00;5.90;;;19.20;84.40;;;;;;4979327;28;20038;-83
2022/06/02 01:48:41;;;;;;;7.10;6.40;;;19.10;84.30;;;;;;4979121;28;20045;-83
2022/06/02 01:51:30;;;;;;;8.15;6.82;;;19.10;84.20;;;;;;4905628;29;20076;-84
2022/06/02 01:54:24;;;;;;;7.18;6.07;;;19.20;84.30;;;;;;4920499;29;20040;-82
2022/06/02 01:57:11;;;;;;;10.18;6.53;;;19.10;84.10;;;;;;4924147;29;20052;-83
2022/06/02 02:00:06;;;;;;;8.90;6.65;;;19.20;84.10;;;;;;4922784;29;20716;-83
2022/06/02 02:02:50;;;;;;;6.80;6.10;;;19.10;84.30;;;;;;4911303;29;20067;-82
2022/06/02 02:05:43;;;;;;;7.15;6.00;;;19.10;84.10;;;;;;4923103;29;20653;-81
2022/06/02 02:08:27;;;;;;;6.78;6.18;;;19.10;84.20;;;;;;4910498;29;20476;-81
2022/06/02 02:11:11;;;;;;;8.40;6.63;;;19.10;84.30;;;;;;4938974;28;20035;-84
2022/06/02 02:14:14;;;;;;;7.20;6.47;;;19.00;84.30;;;;;;4941140;28;20163;-83
2022/06/02 02:17:00;;;;;;;8.30;6.38;;;19.10;84.30;;;;;;4958327;28;20035;-83
2022/06/02 02:20:01;;;;;;;6.90;6.20;;;19.10;84.10;;;;;;4930413;28;20027;-81
2022/06/02 02:22:57;;;;;;;9.20;6.50;;;19.10;83.90;;;;;;4942592;28;20528;-83
2022/06/02 02:26:01;;;;;;;7.78;6.13;;;19.20;84.00;;;;;;4927652;29;20099;-83
2022/06/02 02:28:58;;;;;;;9.57;6.13;;;19.20;83.80;;;;;;4978414;28;20039;-82
2022/06/02 02:31:41;;;;;;;6.80;6.10;;;19.30;83.80;;;;;;5006726;28;20546;-84
2022/06/02 02:34:28;;;;;;;10.52;5.72;;;19.30;83.50;;;;;;5020220;28;20038;-84
2022/06/02 02:37:09;;;;;;;6.30;5.78;;;19.30;83.40;;;;;;5024698;28;20080;-84
2022/06/02 02:40:05;;;;;;;8.82;5.82;;;19.30;83.30;;;;;;5020027;28;20176;-83
2022/06/02 02:42:53;;;;;;;7.90;5.80;;;19.30;83.20;;;;;;5002920;28;20035;-83
2022/06/02 02:45:31;;;;;;;10.20;5.75;;;19.20;83.30;;;;;;5034612;28;20050;-84
2022/06/02 02:48:18;;;;;;;6.90;5.93;;;19.20;83.50;;;;;;5002060;28;20073;-76
2022/06/02 02:51:05;;;;;;;6.07;5.47;;;19.20;83.30;;;;;;5001937;28;20508;-83
2022/06/02 02:53:36;;;;;;;7.32;5.40;;;19.30;83.20;;;;;;5001705;28;20517;-84
2022/06/02 02:56:19;;;;;;;6.53;5.38;;;19.30;82.90;;;;;;5001503;28;20038;-83
2022/06/02 02:58:57;;;;;;;7.90;5.47;;;19.40;82.80;;;;;;5000547;28;20042;-83
2022/06/02 03:01:41;;;;;;;8.68;5.72;;;19.40;82.70;;;;;;5003547;28;20136;-84
2022/06/02 03:04:19;;;;;;;8.77;5.38;;;19.50;82.60;;;;;;5002110;28;20490;-84
2022/06/02 03:06:47;;;;;;;11.02;5.28;;;19.60;82.20;;;;;;5001139;28;20582;-82
2022/06/02 03:09:30;;;;;;;5.53;4.78;;;19.60;82.20;;;;;;5034897;28;20034;-81
2022/06/02 03:12:11;;;;;;;7.00;4.90;;;19.60;82.00;;;;;;5001430;28;20027;-83
2022/06/02 03:14:55;;;;;;;5.05;4.50;;;19.70;81.80;;;;;;5017352;28;20056;-83
2022/06/02 03:17:37;;;;;;;5.82;4.45;;;19.60;81.60;;;;;;5001888;28;20464;-81
2022/06/02 03:20:18;;;;;;;5.00;4.45;;;19.60;81.60;;;;;;5001389;28;20052;-82
2022/06/02 03:22:50;;;;;;;5.32;4.18;;;19.70;81.70;;;;;;5001123;28;20582;-82
2022/06/02 03:25:34;;;;;;;5.38;3.75;;;19.80;81.40;;;;;;5000019;28;20579;-83
2022/06/02 03:28:04;;;;;;;4.82;3.97;;;20.00;80.90;;;;;;5015152;28;20034;-81
2022/06/02 03:30:42;;;;;;;4.13;3.58;;;20.20;80.40;;;;;;5000534;28;20112;-84
2022/06/02 03:33:45;;;;;;;8.80;3.55;;;20.40;79.80;;;;;;5002360;28;20065;-81
2022/06/02 03:36:31;;;;;;;4.43;3.53;;;20.60;78.90;;;;;;5031104;28;20037;-82
2022/06/02 03:39:15;;;;;;;3.95;3.50;;;20.80;78.70;;;;;;5005576;28;20038;-83
2022/06/02 03:42:00;;;;;;;6.03;3.42;;;21.00;78.00;;;;;;5020023;28;20049;-83
2022/06/02 03:44:35;;;;;;;4.05;3.00;;;21.10;77.60;;;;;;5008374;28;20087;-81
2022/06/02 03:47:10;;;;;;;3.15;2.85;;;21.30;77.20;;;;;;5004489;28;20531;-85
2022/06/02 03:49:45;;;;;;;5.55;2.90;;;21.40;76.80;;;;;;5004279;28;20037;-81
2022/06/02 03:52:32;;;;;;;3.53;2.60;;;21.60;76.70;;;;;;4998016;28;20410;-85
2022/06/02 03:55:05;;;;;;;4.57;3.03;;;21.70;76.30;;;;;;5018722;28;20050;-86
2022/06/02 03:58:10;;;;;;;6.55;3.05;;;21.80;76.00;;;;;;5002310;28;20516;-86
2022/06/02 04:01:06;;;;;;;4.25;2.55;;;22.00;75.70;;;;;;5014631;28;20033;-84
2022/06/02 04:03:50;;;;;;;5.82;3.22;;;22.10;75.40;;;;;;5032194;28;20160;-87
2022/06/02 04:06:55;;;;;;;2.83;2.60;;;22.20;75.30;;;;;;5018660;28;20038;-87
2022/06/02 04:09:41;;;;;;;3.97;2.72;;;22.40;75.20;;;;;;4997441;28;20108;-83
2022/06/02 04:15:55;;;;;;;3.88;2.35;;;22.70;74.30;;;;;;4980493;28;20042;-80
2022/06/02 04:20:34;;;;;;;3.65;2.60;;;22.80;73.70;;;;;;4982705;28;20124;-79
2022/06/02 04:22:26;;;;;;;3.97;2.67;;;22.90;73.80;;;;;;4981471;28;20034;-81
2022/06/02 04:25:27;;;;;;;3.75;2.60;;;23.10;74.00;;;;;;4996378;28;20046;-82
2022/06/02 04:28:19;;;;;;;3.90;2.53;;;23.20;74.10;;;;;;4977986;28;20038;-82
2022/06/02 04:31:28;;;;;;;3.83;2.25;;;23.30;73.80;;;;;;4979764;28;20503;-81
2022/06/02 04:34:10;;;;;;;5.85;2.67;;;23.50;73.50;;;;;;4966619;28;20049;-82
2022/06/02 04:36:47;;;;;;;3.40;2.40;;;23.60;73.30;;;;;;4984180;28;20061;-83
2022/06/02 04:39:45;;;;;;;4.90;2.55;;;23.70;73.30;;;;;;4995132;28;20045;-82
2022/06/02 04:42:27;;;;;;;4.63;2.60;;;23.80;73.10;;;;;;4982447;28;20034;-78
2022/06/02 04:45:09;;;;;;;4.03;2.88;;;23.90;72.60;;;;;;4998583;28;20077;-81
2022/06/02 04:47:37;;;;;;;4.45;2.75;;;24.00;72.50;;;;;;5015913;28;20046;-78
2022/06/02 04:50:25;;;;;;;5.65;2.60;;;24.10;72.50;;;;;;5033443;28;20084;-77
2022/06/02 04:53:00;;;;;;;3.38;2.38;;;24.30;72.30;;;;;;5017223;28;20026;-77
2022/06/02 04:55:56;;;;;;;;;;;24.40;72.50;;;;;;5000386;28;20621;-77
2022/06/02 04:58:53;;;;;;;4.55;2.38;;;24.50;71.60;;;;;;5011581;28;19928;-78
2022/06/02 05:01:37;;;;;;;2.75;2.30;;;24.70;71.20;;;;;;5001877;28;20129;-79
2022/06/02 05:04:40;;;;;;;7.78;2.65;;;24.80;71.20;;;;;;5000144;28;20093;-79
2022/06/02 05:07:38;;;;;;;4.00;2.33;;;24.90;70.50;;;;;;5000924;28;20065;-78
2022/06/02 05:10:25;;;;;;;4.55;2.85;;;25.00;70.30;;;;;;5000049;28;20109;-78
2022/06/02 05:13:14;;;;;;;3.47;2.47;;;25.10;70.00;;;;;;5002365;28;20095;-78
2022/06/02 05:15:55;;;;;;;4.68;2.60;;;25.20;70.00;;;;;;5030919;28;20062;-79
2022/06/02 05:18:27;;;;;;;4.72;2.38;;;25.20;69.90;;;;;;4986467;28;20125;-77
2022/06/02 05:21:17;;;;;;;6.47;2.85;;;25.30;69.90;;;;;;5001414;28;20038;-79
2022/06/02 05:24:20;;;;;;;4.43;2.65;;;25.40;69.70;;;;;;5001680;28;20054;-77
2022/06/02 05:27:28;;;;;;;8.20;2.67;;;25.40;69.70;;;;;;5002618;28;20576;-78
2022/06/02 05:30:13;;;;;;;6.30;2.42;;;25.60;69.50;;;;;;4971415;28;20543;-78
2022/06/02 05:32:39;;;;;;;;;;;25.80;69.30;;;;;;5003447;28;20035;-79
2022/06/02 05:35:39;;;;;;;6.93;2.38;;;25.80;69.00;;;;;;4973034;28;19925;-76
2022/06/02 05:38:23;;;;;;;9.55;2.20;;;25.90;69.10;;;;;;4984661;28;20045;-78
2022/06/02 05:40:58;;;;;;;5.88;2.33;;;26.00;68.80;;;;;;4981706;28;20045;-78
2022/06/02 05:43:45;;;;;;;5.70;1.90;;;26.00;68.90;;;;;;4969308;28;20038;-79
2022/06/02 05:46:30;;;;;;;6.38;2.10;;;26.20;68.80;;;;;;4966524;28;20619;-78
2022/06/02 05:49:08;;;;;;;6.00;2.03;;;26.20;68.40;;;;;;4965801;28;20030;-79
2022/06/02 05:51:52;;;;;;;3.83;2.10;;;26.30;68.30;;;;;;4964774;28;20039;-77
2022/06/02 05:54:29;;;;;;;4.00;1.90;;;26.40;67.80;;;;;;4980967;28;20038;-79
2022/06/02 05:57:26;;;;;;;4.35;1.52;;;26.50;67.40;;;;;;4953544;28;20030;-77
2022/06/02 06:00:11;;;;;;;4.70;1.90;;;26.60;67.10;;;;;;4987977;28;20034;-78
2022/06/02 06:03:04;;;;;;;2.70;1.80;;;26.80;67.20;;;;;;5001144;28;20061;-84
2022/06/02 06:05:57;;;;;;;8.70;3.20;;;26.90;66.70;;;;;;4998686;28;20046;-77
2022/06/02 06:08:40;;;;;;;8.13;2.67;;;27.00;63.60;;;;;;5017534;28;20041;-78
2022/06/02 06:11:20;;;;;;;8.55;2.55;;;26.90;65.40;;;;;;5020560;28;20054;-77
2022/06/02 06:14:04;;;;;;;4.97;2.63;;;27.10;65.50;;;;;;5022361;28;20068;-76
2022/06/02 06:16:44;;;;;;;6.18;2.58;;;26.80;64.10;;;;;;5038573;28;20555;-77
2022/06/02 06:19:28;;;;;;;7.47;2.90;;;27.00;66.20;;;;;;5054968;28;20041;-77
2022/06/02 06:22:13;;;;;;;6.72;3.70;;;27.10;63.40;;;;;;5022107;28;20037;-77
2022/06/02 06:24:39;;;;;;;;;;;26.60;61.30;;;;;;5024601;28;20029;-77
2022/06/02 06:27:31;;;;;;;4.85;3.17;;;26.30;62.60;;;;;;5021013;28;20745;-77
2022/06/02 06:30:11;;;;;;;10.57;3.38;;;26.30;62.50;;;;;;5036289;28;20033;-78
2022/06/02 06:32:40;;;;;;;11.57;3.70;;;26.40;62.80;;;;;;5021808;28;20512;-78
2022/06/02 06:35:26;;;;;;;6.53;3.50;;;26.50;63.20;;;;;;5025237;28;20033;-77
2022/06/02 06:38:01;;;;;;;7.55;4.00;;;26.70;63.80;;;;;;5021772;28;20116;-77
2022/06/02 06:40:47;;;;;;;7.60;3.05;;;26.40;62.10;;;;;;5022340;28;20030;-77
2022/06/02 06:43:21;;;;;;;8.23;3.58;;;26.30;62.50;;;;;;5022152;28;20577;-79
2022/06/02 06:46:14;;;;;;;7.05;3.55;;;26.30;63.00;;;;;;5021830;28;20689;-77
2022/06/02 06:49:15;;;;;;;7.38;3.13;;;26.30;62.80;;;;;;5022533;28;20669;-78
2022/06/02 06:52:14;;;;;;;9.07;3.92;;;26.30;62.40;;;;;;4981273;28;20050;-77
2022/06/02 06:55:17;;;;;;;5.95;3.00;;;26.00;63.10;;;;;;4948860;28;20077;-77
2022/06/02 06:57:53;;;;;;;7.35;3.03;;;26.00;63.60;;;;;;4965358;28;20252;-78
2022/06/02 07:00:51;;;;;;;5.45;3.53;;;26.30;65.40;;;;;;4965082;28;20070;-78
2022/06/02 07:03:19;;;;;;;4.40;2.88;;;26.40;63.60;;;;;;4886202;29;20040;-77
2022/06/02 07:05:53;;;;;;;5.57;3.08;;;26.30;63.20;;;;;;4891655;29;20528;-78
2022/06/02 07:08:36;;;;;;;5.40;3.00;;;26.10;63.10;;;;;;4896663;29;20431;-78
2022/06/02 07:14:27;;;;;;;6.63;2.67;;;26.30;64.00;;;;;;4897361;29;20039;-78
2022/06/02 07:16:57;;;;;;;4.07;2.90;;;26.20;63.40;;;;;;4882362;29;20044;-78
2022/06/02 07:19:38;;;;;;;3.83;2.28;;;26.30;64.10;;;;;;4897213;29;20036;-77
2022/06/02 07:22:19;;;;;;;8.20;3.28;;;26.40;64.90;;;;;;4897467;29;20546;-78
2022/06/02 07:25:14;;;;;;;9.05;3.35;;;26.50;64.40;;;;;;4896873;29;20906;-78
2022/06/02 07:28:01;;;;;;;4.03;2.53;;;26.30;63.90;;;;;;4901115;28;20048;-78
2022/06/02 07:30:52;;;;;;;6.40;3.20;;;26.50;64.60;;;;;;4964965;28;20505;-79
2022/06/02 07:33:41;;;;;;;5.07;2.53;;;26.60;63.50;;;;;;4964915;28;20034;-78
2022/06/02 07:36:45;;;;;;;7.63;2.80;;;26.60;64.60;;;;;;4971741;28;20141;-78
2022/06/02 07:39:30;;;;;;;11.68;3.30;;;26.50;65.00;;;;;;4977942;28;20444;-78
2022/06/02 07:42:11;;;;;;;5.47;2.85;;;26.50;64.90;;;;;;5022421;28;20500;-79
2022/06/02 07:45:11;;;;;;;4.50;2.40;;;26.30;64.60;;;;;;5021707;28;20117;-77
2022/06/02 07:47:40;;;;;;;4.82;3.47;;;26.30;65.40;;;;;;5020997;28;20029;-78
2022/06/02 07:50:22;;;;;;;7.95;3.40;;;26.10;64.20;;;;;;5020281;28;20382;-78
2022/06/02 07:53:03;;;;;;;6.07;2.75;;;26.00;65.00;;;;;;5022266;28;20036;-78
2022/06/02 07:55:49;;;;;;;3.53;2.45;;;26.10;65.20;;;;;;5019234;28;20456;-78
2022/06/02 07:58:40;;;;;;;5.28;2.30;;;26.20;65.80;;;;;;5020696;28;20531;-78
2022/06/02 08:01:18;;;;;;;6.60;2.33;;;26.30;66.10;;;;;;5022612;28;20045;-77
2022/06/02 08:03:45;;;;;;;6.15;2.60;;;26.30;66.10;;;;;;5019204;28;20037;-77
2022/06/02 08:06:35;;;;;;;5.90;3.08;;;26.30;66.40;;;;;;5020469;28;20515;-84
2022/06/02 08:09:34;;;;;;;5.78;2.63;;;26.30;66.90;;;;;;5021483;28;20484;-83
2022/06/02 08:12:21;;;;;;;6.72;2.70;;;26.30;67.70;;;;;;5019266;28;20040;-82
2022/06/02 08:15:38;;;;;;;6.15;3.53;;;26.30;68.00;;;;;;5021595;28;20482;-84
2022/06/02 08:18:21;;;;;;;8.55;4.13;;;26.10;67.30;;;;;;4980745;28;20734;-85
2022/06/02 08:21:16;;;;;;;7.75;3.83;;;26.00;66.10;;;;;;4968466;28;20038;-82
2022/06/02 08:24:30;;;;;;;13.48;4.43;;;25.80;66.50;;;;;;4984090;28;20050;-83
2022/06/02 08:27:32;;;;;;;10.27;3.50;;;25.80;66.40;;;;;;4874885;29;20067;-83
2022/06/02 08:30:19;;;;;;;6.63;4.00;;;25.80;69.20;;;;;;4913838;29;20047;-82
2022/06/02 08:33:07;;;;;;;6.05;3.20;;;25.70;66.60;;;;;;4918754;29;20031;-82
2022/06/02 08:35:45;;;;;;;5.82;3.20;;;25.70;69.70;;;;;;4916775;29;20430;-82
2022/06/02 08:38:49;;;;;;;7.88;3.28;;;25.70;70.10;;;;;;4915529;29;20039;-82
2022/06/02 08:42:12;;;;;;;6.15;2.85;;;25.80;69.90;;;;;;4932495;29;20050;-81
2022/06/02 08:44:46;;;;;;;6.65;3.17;;;25.90;70.10;;;;;;4916240;29;21057;-82
2022/06/02 08:47:27;;;;;;;6.50;3.10;;;25.80;69.80;;;;;;4916304;29;20040;-82
2022/06/02 08:50:20;;;;;;;4.55;2.95;;;25.80;68.70;;;;;;4915611;29;20028;-82
2022/06/02 08:53:03;;;;;;;9.23;3.72;;;25.80;69.80;;;;;;4966891;28;20035;-82
2022/06/02 08:55:43;;;;;;;5.93;3.13;;;25.70;69.10;;;;;;4973433;28;20117;-84
2022/06/02 08:58:46;;;;;;;9.68;3.45;;;25.80;69.70;;;;;;4932419;28;20039;-86
2022/06/02 09:01:30;;;;;;;10.32;3.13;;;25.80;69.90;;;;;;4938297;28;20517;-84
2022/06/02 09:03:56;;;;;;;5.72;3.30;;;25.70;69.70;;;;;;4980036;28;20034;-83
2022/06/02 09:06:36;;;;;;;9.38;3.70;;;25.70;69.90;;;;;;4954098;28;20052;-84
2022/06/02 09:09:20;;;;;;;7.35;3.88;;;25.70;69.80;;;;;;4954980;28;20042;-83
2022/06/02 09:11:54;;;;;;;7.10;3.92;;;25.70;69.10;;;;;;4990877;28;20492;-80
2022/06/02 09:14:29;;;;;;;8.93;4.77;;;25.70;69.90;;;;;;4992716;28;20568;-78
2022/06/02 09:17:06;;;;;;;;;;;25.70;69.20;;;;;;5004887;28;20508;-85
2022/06/02 09:20:12;;;;;;;7.57;3.80;;;25.70;68.20;;;;;;5042908;28;19921;-81
2022/06/02 09:22:54;;;;;;;6.70;4.35;;;25.60;69.50;;;;;;5013314;28;20041;-84
2022/06/02 09:25:38;;;;;;;13.40;4.50;;;25.60;69.40;;;;;;5004940;28;20050;-85
2022/06/02 09:28:15;;;;;;;27.13;17.10;;;25.60;69.90;;;;;;5004286;28;20037;-82
2022/06/02 09:31:23;;;;;;;33.30;25.15;;;25.70;70.00;;;;;;5013372;28;20108;-84
2022/06/02 09:34:27;;;;;;;36.63;28.58;;;25.70;70.20;;;;;;5005883;28;20125;-82
2022/06/02 09:37:28;;;;;;;39.22;29.65;;;25.70;69.90;;;;;;5011559;28;20421;-83
2022/06/02 09:40:46;;;;;;;21.20;16.40;;;25.70;70.00;;;;;;4995332;28;20038;-82
2022/06/02 09:43:29;;;;;;;31.02;22.38;;;25.50;67.90;;;;;;4884404;29;20036;-83
2022/06/02 09:45:55;;;;;;;19.52;15.48;;;25.50;69.70;;;;;;4900737;29;20567;-83
2022/06/02 09:48:48;;;;;;;22.88;17.92;;;25.50;68.60;;;;;;4897108;29;20320;-83
2022/06/02 09:51:41;;;;;;;22.48;16.85;;;25.50;69.40;;;;;;4885856;29;20091;-83
2022/06/02 09:54:10;;;;;;;25.65;16.50;;;25.50;69.50;;;;;;4900827;29;20095;-84
2022/06/02 09:56:54;;;;;;;19.48;14.57;;;25.50;69.50;;;;;;4896716;29;20032;-84
2022/06/02 09:59:33;;;;;;;17.48;13.98;;;25.50;69.70;;;;;;4900125;29;20123;-84
2022/06/02 10:02:23;;;;;;;16.98;11.90;;;25.60;69.60;;;;;;4902566;29;20044;-82
2022/06/02 10:05:13;;;;;;;13.85;9.70;;;25.50;68.70;;;;;;4898647;29;20036;-83
2022/06/02 10:07:44;;;;;;;15.38;12.73;;;25.40;68.90;;;;;;4908298;29;20110;-83
2022/06/02 10:10:39;;;;;;;16.60;12.07;;;25.40;69.40;;;;;;4930435;29;20051;-84
2022/06/02 10:13:39;;;;;;;13.80;10.13;;;25.40;69.60;;;;;;4948214;28;20031;-81
2022/06/02 10:16:32;;;;;;;10.05;7.68;;;25.50;69.20;;;;;;4938669;28;20515;-86
2022/06/02 10:19:17;;;;;;;13.98;9.75;;;25.50;68.60;;;;;;5033472;28;20062;-83
2022/06/02 10:22:19;;;;;;;14.15;8.60;;;25.50;69.00;;;;;;5003184;28;20081;-83
2022/06/02 10:25:19;;;;;;;10.35;7.75;;;25.50;69.10;;;;;;5033959;28;20133;-85
2022/06/02 10:28:26;;;;;;;11.50;4.97;;;25.50;68.80;;;;;;5019514;28;20041;-85
2022/06/02 10:31:10;;;;;;;8.48;6.80;;;25.50;67.20;;;;;;5035724;28;20425;-84
2022/06/02 10:34:00;;;;;;;7.95;4.78;;;25.40;68.40;;;;;;5017598;28;20034;-84
2022/06/02 10:36:56;;;;;;;10.77;4.00;;;25.50;66.50;;;;;;5005602;28;21007;-83
2022/06/02 10:39:50;;;;;;;11.27;8.05;;;25.50;66.80;;;;;;5005450;28;20129;-84
2022/06/02 10:42:30;;;;;;;10.43;7.60;;;25.40;68.70;;;;;;5002236;28;20038;-86
2022/06/02 10:45:19;;;;;;;10.65;7.10;;;25.40;69.00;;;;;;5002830;28;20050;-83
2022/06/02 10:48:15;;;;;;;10.60;8.43;;;25.40;69.10;;;;;;5002643;28;20092;-83
2022/06/02 10:51:03;;;;;;;16.33;11.65;;;25.40;69.30;;;;;;5005441;28;20042;-85
2022/06/02 10:53:41;;;;;;;10.40;5.75;;;25.40;69.50;;;;;;5034696;28;20034;-84
2022/06/02 10:56:18;;;;;;;6.50;5.00;;;25.30;68.20;;;;;;5001260;28;20042;-81
2022/06/02 10:59:19;;;;;;;8.38;6.63;;;25.30;67.40;;;;;;5003659;28;20065;-84
2022/06/02 11:02:22;;;;;;;10.25;6.75;;;25.30;68.50;;;;;;5001555;28;20033;-88
2022/06/02 11:05:35;;;;;;;16.65;11.25;;;25.30;69.40;;;;;;4999543;28;20046;-80
2022/06/02 11:08:51;;;;;;;17.27;11.45;;;25.40;69.40;;;;;;5002071;28;20036;-81
2022/06/02 11:11:35;;;;;;;13.38;9.15;;;25.40;69.80;;;;;;5005254;28;20057;-83
2022/06/02 11:14:36;;;;;;;11.45;9.40;;;25.30;69.20;;;;;;5001505;28;20033;-82
2022/06/02 11:17:11;;;;;;;13.52;9.27;;;25.30;69.80;;;;;;4999000;28;20476;-82
2022/06/02 11:19:41;;;;;;;14.07;9.30;;;25.30;69.90;;;;;;5002747;28;20080;-82
2022/06/02 11:22:43;;;;;;;11.93;8.38;;;25.30;69.90;;;;;;5014080;28;20095;-80
2022/06/02 11:25:36;;;;;;;10.57;6.25;;;25.40;69.80;;;;;;5014558;28;20536;-88
2022/06/02 11:28:22;;;;;;;12.38;7.53;;;25.40;68.80;;;;;;5032752;28;20485;-86
2022/06/02 11:30:54;;;;;;;;;;;25.40;69.10;;;;;;5034202;28;20050;-83
2022/06/02 11:33:55;;;;;;;9.85;7.85;;;25.40;69.50;;;;;;5002361;28;19922;-83
2022/06/02 11:36:39;;;;;;;12.82;8.13;;;25.40;69.70;;;;;;4998418;28;20040;-85
2022/06/02 11:39:21;;;;;;;9.80;8.23;;;25.30;69.80;;;;;;4999271;28;20034;-85
2022/06/02 11:41:58;;;;;;;11.23;6.90;;;25.40;70.00;;;;;;4999794;28;20072;-85
2022/06/02 11:44:44;;;;;;;14.07;8.18;;;25.40;69.20;;;;;;5037082;28;20046;-85
2022/06/02 11:47:13;;;;;;;11.00;7.82;;;25.40;69.40;;;;;;5006310;28;21432;-83
2022/06/02 11:50:12;;;;;;;10.00;6.70;;;25.40;68.80;;;;;;4985216;28;20045;-84
2022/06/02 11:52:57;;;;;;;10.48;7.68;;;25.50;69.20;;;;;;5001507;28;20038;-86
2022/06/02 11:55:42;;;;;;;11.10;7.13;;;25.40;69.20;;;;;;5001113;28;20104;-87
2022/06/02 11:58:43;;;;;;;8.48;7.57;;;25.50;69.10;;;;;;5015863;28;20037;-82
2022/06/02 12:01:14;;;;;;;11.60;7.43;;;25.50;69.30;;;;;;4983474;28;20050;-83
2022/06/02 12:04:16;;;;;;;10.32;7.72;;;25.40;69.40;;;;;;4983372;28;20042;-82
2022/06/02 12:07:18;;;;;;;8.13;6.88;;;25.50;69.40;;;;;;4987815;28;20038;-83
2022/06/02 12:10:02;;;;;;;8.43;6.82;;;25.50;69.40;;;;;;4984096;28;20039;-83
2022/06/02 12:12:49;;;;;;;10.90;7.10;;;25.40;69.10;;;;;;4983751;28;21205;-82
2022/06/02 12:15:27;;;;;;;12.18;6.85;;;25.40;69.10;;;;;;4983066;28;20117;-81
2022/06/02 12:18:19;;;;;;;9.18;6.55;;;25.40;69.00;;;;;;4967363;28;20403;-81
2022/06/02 12:20:45;;;;;;;9.07;6.50;;;25.40;69.10;;;;;;4998876;28;20042;-80
2022/06/02 12:23:44;;;;;;;7.05;6.35;;;25.40;69.00;;;;;;4966881;28;20066;-81
2022/06/02 12:26:19;;;;;;;9.57;6.45;;;25.40;68.80;;;;;;4983131;28;20057;-80
2022/06/02 12:29:03;;;;;;;9.65;5.88;;;25.40;69.00;;;;;;4983424;28;20457;-81
2022/06/02 12:31:42;;;;;;;7.18;5.82;;;25.40;69.00;;;;;;4983722;28;20097;-81
2022/06/02 12:34:45;;;;;;;8.15;5.82;;;25.40;69.00;;;;;;4983078;28;20664;-82
2022/06/02 12:37:32;;;;;;;10.60;6.07;;;25.40;68.90;;;;;;4962235;28;20038;-81
2022/06/02 12:40:17;;;;;;;8.18;5.63;;;25.40;69.00;;;;;;5000890;28;20034;-81
2022/06/02 12:42:43;;;;;;;6.47;4.22;;;25.40;68.80;;;;;;4998886;28;20034;-81
2022/06/02 12:45:41;;;;;;;6.80;5.10;;;25.40;67.50;;;;;;4999448;28;20034;-81
2022/06/02 12:48:38;;;;;;;9.73;4.50;;;25.40;68.30;;;;;;5018676;28;20038;-78
2022/06/02 12:51:35;;;;;;;8.65;5.32;;;25.40;68.30;;;;;;5000379;28;20037;-81
2022/06/02 12:54:39;;;;;;;8.77;5.38;;;25.40;68.40;;;;;;5000520;28;20030;-82
2022/06/02 12:57:29;;;;;;;8.75;4.93;;;25.40;68.30;;;;;;5002352;28;20030;-81
2022/06/02 13:00:04;;;;;;;7.35;4.68;;;25.30;68.40;;;;;;5000384;28;20026;-81
2022/06/02 13:02:33;;;;;;;;;;;25.40;68.30;;;;;;4999903;28;20066;-81
2022/06/02 13:05:32;;;;;;;7.43;4.72;;;25.30;68.70;;;;;;4998799;28;19921;-82
2022/06/02 13:08:32;;;;;;;8.10;4.95;;;25.30;68.80;;;;;;5014717;28;20027;-81
2022/06/02 13:11:23;;;;;;;9.82;5.03;;;25.30;68.60;;;;;;5000586;28;20066;-81
2022/06/02 13:13:54;;;;;;;5.88;4.68;;;25.40;68.70;;;;;;5000979;28;20031;-81
2022/06/02 13:16:42;;;;;;;8.95;4.35;;;25.30;68.60;;;;;;4985552;28;20030;-82
2022/06/02 13:19:31;;;;;;;4.20;3.63;;;25.30;68.50;;;;;;4999071;28;20042;-79
2022/06/02 13:22:23;;;;;;;5.93;3.90;;;25.30;68.30;;;;;;4999775;28;20029;-81
2022/06/02 13:25:04;;;;;;;6.00;4.30;;;25.30;68.10;;;;;;5001933;28;20041;-81
2022/06/02 13:27:54;;;;;;;8.02;4.40;;;25.30;68.30;;;;;;4997925;28;20030;-81
2022/06/02 13:31:11;;;;;;;9.02;4.40;;;25.40;67.30;;;;;;4980983;28;20034;-80
2022/06/02 13:34:10;;;;;;;9.45;4.15;;;25.30;67.90;;;;;;4963860;28;20031;-81
2022/06/02 13:37:13;;;;;;;8.73;4.28;;;25.30;68.20;;;;;;4964101;28;20102;-85
2022/06/02 13:40:11;;;;;;;9.60;4.50;;;25.30;68.00;;;;;;4947686;28;20037;-83
2022/06/02 13:43:07;;;;;;;4.93;3.50;;;25.30;68.30;;;;;;4953126;28;20041;-85
2022/06/02 13:46:00;;;;;;;7.15;4.20;;;25.30;67.60;;;;;;4949393;28;20046;-84
2022/06/02 13:48:43;;;;;;;9.80;4.28;;;25.30;68.20;;;;;;4966789;28;20039;-83
2022/06/02 13:51:41;;;;;;;6.05;4.10;;;25.30;68.20;;;;;;4966129;28;20050;-83
2022/06/02 13:57:55;;;;;;;6.40;4.10;;;25.40;68.40;;;;;;4966802;28;20034;-85
2022/06/02 14:00:33;;;;;;;9.13;4.47;;;25.40;68.30;;;;;;4967966;28;20131;-85
2022/06/02 14:03:29;;;;;;;9.00;4.18;;;25.40;68.10;;;;;;4970000;28;20042;-85
2022/06/02 14:06:10;;;;;;;6.45;3.70;;;25.40;68.40;;;;;;4971687;28;20038;-85
2022/06/02 14:08:39;;;;;;;13.50;4.25;;;25.40;67.80;;;;;;4969262;28;20042;-83
2022/06/02 14:11:43;;;;;;;5.97;3.72;;;25.40;67.80;;;;;;4987332;28;20045;-83
2022/06/02 14:14:12;;;;;;;8.35;3.92;;;25.40;67.70;;;;;;4988342;28;20466;-82
2022/06/02 14:16:54;;;;;;;11.95;4.05;;;25.40;68.30;;;;;;4991107;28;20059;-85
2022/06/02 14:19:38;;;;;;;8.00;3.88;;;25.30;68.00;;;;;;5008986;28;20108;-83
2022/06/02 14:22:16;;;;;;;5.45;3.60;;;25.30;68.00;;;;;;5011415;28;20041;-84
2022/06/02 14:25:01;;;;;;;7.78;3.95;;;25.30;67.90;;;;;;4996061;28;20037;-85
2022/06/02 14:27:54;;;;;;;9.30;4.20;;;25.30;67.70;;;;;;4997578;28;20073;-80
2022/06/02 14:30:32;;;;;;;6.97;3.70;;;25.30;67.70;;;;;;5004058;28;20073;-82
2022/06/02 14:33:11;;;;;;;7.95;4.20;;;25.30;67.70;;;;;;5022994;28;20042;-78
2022/06/02 14:35:36;;;;;;;8.48;4.18;;;25.30;68.20;;;;;;5003983;28;20034;-77
2022/06/02 14:38:44;;;;;;;6.75;3.47;;;25.20;68.10;;;;;;5006284;28;20036;-78
2022/06/02 14:41:30;;;;;;;7.50;4.38;;;25.20;68.40;;;;;;5033723;28;20034;-80